Portada
METAR-TAF:

METAR-TAF

Aeroports :

Gwalior, Índia

latitud: 26-17-36N, longitud: 78-13-40E, altitud: 188 m

Observació

L'informe es va fer fa 1 hora i 9 minuts, a les 04:30 UTC
Vent 3 kt del Oest
Temperatura 29°C
Humitat 58%
Pressió 1015 hPa
Visibilitat: 6000 m
Cel clar

METAR: VIGR 140430Z 27003KT 6000 SKC 29/20 Q1015 NOSIG

Hora: 11:09 (05:39 UTC)

Pronòstic

L'informe es va fer fa 26 hores i 9 minuts, a les 03:30 UTC
Pronòstic vàlid del 13 a les 06 UTC al 13 a les 18 UTC
Vent 5 kt del Oest
Visibilitat: 6000 m
Escasses núvols a una alçada de 3000 ft
Evolucionant progressivament
l' 13 a les 13 UTC al 13 a les 14 UTC
Vent 2 kt amb direcció variable
Visibilitat: 6000 m
Cel clar

TAF: VIGR 130330Z 1306/1318 27005KT 6000 FEW030 BECMG 1313/1314 VRB02KT 6000 SKC

Observacions i pronòstics meteorològics de més de 4000 aeroports (METAR i TAF).

Les estacions disponibles són els punts grocs i vermells al mapa.

Posi el ratolí al punt desitjat per veure el nom de l'estació.

Feu clic per veure les observacions i els pronòstics meteorològics.

Per canviar el mapa: feu clic els botons verds amb una creu de color negre per apropar; al botó verd amb un guió per allunyar la imatge; o en les fletxes verdes per a mapes adjacents.


METAR-TAF: